ADDS METAR Data INFO
IDs: Format: Raw Decoded Include TAF

Data at: 2033 UTC 20 Jul 2018

KSME 202015Z AUTO 22009G15KT 170V250 10SM SCT046 SCT070 31/19 A2988 RMK AO2
KSME 201955Z AUTO 23007G16KT 10SM SCT046 SCT065 SCT080 30/19 A2990 RMK AO2 LTG DSNT N
KSME 201935Z AUTO 25012G17KT 200V260 10SM SCT044 SCT049 BKN080 31/20 A2992 RMK AO2 LTG DSNT N
KSME 201915Z AUTO 19007KT 160V220 10SM SCT042 BKN049 31/20 A2992 RMK AO2 LTG DSNT N
KSME 201855Z AUTO 23009G18KT 10SM SCT042 30/19 A2992 RMK AO2
KSME 201835Z AUTO 21008G16KT 10SM SCT042 30/20 A2994 RMK AO2 LTG DSNT N AND NW
KSME 201815Z AUTO 23009G15KT 10SM SCT042 SCT080 30/19 A2995 RMK AO2
KSME 201755Z AUTO 23010KT 10SM SCT042 SCT080 30/20 A2997 RMK AO2 LTG DSNT N
KSME 201735Z AUTO 24010KT 10SM SCT044 BKN065 BKN110 29/19 A2998 RMK AO2
KSME 201715Z AUTO 22010KT 10SM SCT040 BKN046 BKN060 30/19 A2999 RMK AO2
KSME 201655Z AUTO 23008KT 10SM BKN041 OVC055 28/19 A2999 RMK AO2
KSME 201635Z AUTO 24006G14KT 10SM BKN039 BKN048 OVC060 28/19 A2999 RMK AO2
KSME 201615Z AUTO 24009G14KT 10SM BKN037 28/19 A2999 RMK AO2
KSME 201555Z AUTO 23013KT 10SM SCT037 29/19 A3000 RMK AO2
KSME 201535Z AUTO 22009G16KT 180V240 10SM SCT035 28/19 A2999 RMK AO2 LTG DSNT N
KSME 201515Z AUTO 23008G16KT 10SM SCT035 28/19 A3000 RMK AO2
KSME 201455Z AUTO 21011G16KT 190V250 10SM CLR 27/19 A3000 RMK AO2
KSME 201435Z AUTO 20009G14KT 10SM CLR 27/19 A3000 RMK AO2 LTG DSNT N AND NE
KSME 201415Z AUTO 22010KT 180V240 10SM CLR 26/20 A3001 RMK AO2
KSME 201355Z AUTO 21009G14KT 10SM CLR 25/20 A3001 RMK AO2 LTG DSNT NE
KSME 201335Z AUTO 20007KT 10SM CLR 25/20 A3001 RMK AO2
KSME 201315Z AUTO 19004KT 10SM CLR 24/20 A3002 RMK AO2 LTG DSNT NE
KSME 201255Z AUTO 19003KT 10SM SCT085 SCT120 23/20 A3002 RMK AO2 LTG DSNT N AND NE
KSME 201235Z AUTO 17004KT 10SM SCT120 23/20 A3002 RMK AO2 LTG DSNT NE
KSME 201215Z AUTO 17003KT 10SM CLR 22/20 A3002 RMK AO2 LTG DSNT N
KSME 201155Z AUTO 00000KT 10SM CLR 22/20 A3001 RMK AO2 LTG DSNT N
KSME 201135Z AUTO 00000KT 10SM SCT050 21/21 A3000 RMK AO2 LTG DSNT N
KSME 201115Z AUTO 00000KT 10SM SCT050 21/20 A3000 RMK AO2
KSME 201055Z AUTO 00000KT 10SM BKN060 21/20 A2999 RMK AO2
KSME 201035Z AUTO 00000KT 10SM BKN060 BKN120 21/20 A2999 RMK AO2 LTG DSNT N
KSME 201015Z AUTO 00000KT 10SM SCT060 SCT120 21/20 A2999 RMK AO2 LTG DSNT N
KSME 200955Z AUTO 00000KT 10SM CLR 21/19 A2998 RMK AO2
KSME 200935Z AUTO 00000KT 10SM CLR 21/19 A2997 RMK AO2 LTG DSNT N
KSME 200915Z AUTO 00000KT 10SM CLR 21/19 A2997 RMK AO2 LTG DSNT N
KSME 200855Z AUTO 00000KT 10SM CLR 21/19 A2997 RMK AO2 LTG DSNT N
KSME 200835Z AUTO 00000KT 10SM SCT050 SCT120 21/19 A2997 RMK AO2 LTG DSNT NW
KSME 200815Z AUTO 15003KT 10SM SCT050 21/18 A2998 RMK AO2 LTG DSNT N
KSME 200755Z AUTO 16003KT 10SM CLR 21/18 A2997 RMK AO2
KSME 200735Z AUTO 00000KT 10SM CLR 21/18 A2998 RMK AO2
KSME 200715Z AUTO 15003KT 10SM CLR 22/18 A2997 RMK AO2
KSME 200655Z AUTO 00000KT 10SM CLR 22/18 A2998 RMK AO2
KSME 200635Z AUTO 16003KT 10SM CLR 22/18 A2998 RMK AO2
KSME 200615Z AUTO 21003KT 10SM CLR 22/19 A2998 RMK AO2
KSME 200555Z AUTO 20005KT 10SM CLR 22/19 A2998 RMK AO2
KSME 200535Z AUTO 19003KT 10SM CLR 22/20 A2997 RMK AO2
KSME 200515Z AUTO 16003KT 10SM CLR 22/20 A2997 RMK AO2
KSME 200455Z AUTO 00000KT 10SM CLR 21/20 A2998 RMK AO2
KSME 200435Z AUTO 14003KT 10SM CLR 21/20 A2998 RMK AO2
KSME 200415Z AUTO 15003KT 10SM CLR 22/20 A2999 RMK AO2
KSME 200355Z AUTO 00000KT 10SM CLR 22/20 A2999 RMK AO2
KSME 200335Z AUTO 00000KT 10SM CLR 22/20 A2998 RMK AO2
KSME 200315Z AUTO 00000KT 10SM CLR 22/20 A2998 RMK AO2
KSME 200255Z AUTO 00000KT 10SM CLR 22/20 A2999 RMK AO2
KSME 200235Z AUTO 00000KT 10SM CLR 23/20 A2999 RMK AO2
KSME 200215Z AUTO 00000KT 10SM CLR 23/20 A2998 RMK AO2
KSME 200155Z AUTO 00000KT 10SM CLR 23/19 A2997 RMK AO2
KSME 200135Z AUTO 00000KT 10SM CLR 24/18 A2996 RMK AO2
KSME 200115Z AUTO 00000KT 10SM CLR 25/18 A2996 RMK AO2
KSME 200055Z AUTO 00000KT 10SM CLR 25/18 A2996 RMK AO2
KSME 200035Z AUTO 00000KT 10SM CLR 26/18 A2996 RMK AO2
KSME 200015Z AUTO 05004KT 10SM CLR 26/18 A2996 RMK AO2
KSME 192355Z AUTO 03004KT 10SM CLR 27/17 A2996 RMK AO2
KSME 192335Z AUTO 04006KT 10SM CLR 28/16 A2996 RMK AO2
KSME 192315Z AUTO 04006KT 10SM CLR 28/17 A2996 RMK AO2
KSME 192255Z AUTO 06004KT 10SM CLR 29/16 A2996 RMK AO2
KSME 192235Z AUTO 06003KT 10SM CLR 30/16 A2996 RMK AO2
KSME 192215Z AUTO 05004KT 10SM CLR 30/16 A2996 RMK AO2
KSME 192155Z AUTO 00000KT 10SM CLR 30/15 A2997 RMK AO2
KSME 192135Z AUTO 21004KT 10SM SCT060 30/15 A2997 RMK AO2
KSME 192115Z AUTO 24003KT 10SM SCT060 30/16 A2998 RMK AO2
KSME 192055Z AUTO 00000KT 10SM SCT060 30/15 A2998 RMK AO2
KSME 192035Z AUTO 32003KT 10SM CLR 30/15 A2998 RMK AO2
KSME 192015Z AUTO 36004KT 10SM CLR 30/15 A2998 RMK AO2
KSME 191955Z AUTO 00000KT 10SM CLR 29/15 A2999 RMK AO2
KSME 191935Z AUTO 28004KT 10SM CLR 30/15 A3000 RMK AO2
KSME 191915Z AUTO 32004KT 10SM CLR 29/14 A3000 RMK AO2 LTG DSNT N
KSME 191855Z AUTO 13004KT 10SM CLR 29/14 A3001 RMK AO2
KSME 191835Z AUTO 14004KT 10SM CLR 28/13 A3001 RMK AO2
KSME 191815Z AUTO 00000KT 10SM CLR 28/15 A3001 RMK AO2
KSME 191755Z AUTO 12005KT 10SM CLR 28/15 A3001 RMK AO2
KSME 191735Z AUTO 11003KT 10SM CLR 28/15 A3002 RMK AO2
KSME 191715Z AUTO 10004KT 10SM CLR 27/15 A3002 RMK AO2
KSME 191655Z AUTO 06004KT 10SM CLR 27/15 A3003 RMK AO2
KSME 191635Z AUTO 00000KT 10SM CLR 27/15 A3003 RMK AO2
KSME 191615Z AUTO 07004KT 10SM CLR 26/15 A3003 RMK AO2
KSME 191555Z AUTO 07003KT 10SM CLR 26/15 A3003 RMK AO2
KSME 191535Z AUTO 06005KT 10SM CLR 26/15 A3004 RMK AO2
KSME 191515Z AUTO 09005KT 10SM CLR 26/14 A3004 RMK AO2
KSME 191455Z AUTO 10005KT 10SM CLR 25/15 A3004 RMK AO2
KSME 191435Z AUTO 10005KT 10SM CLR 25/15 A3005 RMK AO2
KSME 191415Z AUTO 11005KT 10SM CLR 24/15 A3006 RMK AO2
KSME 191355Z AUTO 11004KT 10SM CLR 23/15 A3006 RMK AO2
KSME 191335Z AUTO 08003KT 10SM CLR 22/15 A3006 RMK AO2
KSME 191315Z AUTO 10003KT 10SM CLR 20/15 A3006 RMK AO2
KSME 191255Z AUTO 12003KT 10SM CLR 20/15 A3005 RMK AO2
KSME 191235Z AUTO 00000KT 10SM CLR 20/16 A3005 RMK AO2
KSME 191215Z AUTO 00000KT 10SM CLR 20/16 A3005 RMK AO2
KSME 191155Z AUTO 00000KT 10SM CLR 18/18 A3005 RMK AO2
KSME 191135Z AUTO 00000KT 10SM CLR 17/17 A3004 RMK AO2
KSME 191115Z AUTO 00000KT 10SM CLR 16/16 A3004 RMK AO2
KSME 191055Z AUTO 00000KT 10SM CLR 16/16 A3004 RMK AO2
KSME 191035Z AUTO 00000KT 10SM CLR 16/16 A3004 RMK AO2
KSME 191015Z AUTO 00000KT 10SM CLR 16/16 A3004 RMK AO2
KSME 190955Z AUTO 00000KT 10SM CLR 16/16 A3003 RMK AO2
KSME 190935Z AUTO 00000KT 10SM CLR 16/16 A3003 RMK AO2
KSME 190915Z AUTO 00000KT 10SM CLR 16/16 A3002 RMK AO2
KSME 190855Z AUTO 00000KT 10SM CLR 16/16 A3002 RMK AO2
KSME 190835Z AUTO 00000KT 10SM CLR 16/16 A3002 RMK AO2